Voyager — C6WC2 — position and weather

sailwx.info

Track history (hours):
 
Tides and Currents Weather Stations Pressure Air Temp Water Temp Dewpoint Dewpoint Depression Visibility Wind Speed Wind Dir Waves Ship Positions

Voyager

Last reported at 2016-Aug-31 06:19 UTC. Time now 2016-Sep-01 05:39 UTC.
Position N 41°30' E 004°01'.

Length 151 m; draft 6 m.

Type: Ship. MMSI: 309695000.

Date/timePositionNaut miles runAvg speedWind from/ knotsBaromVisibWave heightAir tempDewpointWater temp
2016-Aug-31 06:19N 41°30' E 004°01'3910.0
2016-Aug-31 02:24N 41°24' E 003°09'49 2.6
2016-Aug-30 07:33N 40°57' E 002°14'1313.0
2016-Aug-30 06:33N 40°44' E 002°14'1313.0
2016-Aug-30 05:33N 40°31' E 002°13'1312.8
2016-Aug-30 04:33N 40°18' E 002°13'1313.3
2016-Aug-30 03:33N 40°05' E 002°12'1413.7
2016-Aug-30 02:33N 39°51' E 002°11'1313.4
2016-Aug-30 01:33N 39°38' E 002°11'1312.7
2016-Aug-30 00:33N 39°26' E 002°18'1313.0
2016-Aug-29 23:33N 39°25' E 002°35'8 7.6
2016-Aug-29 22:30N 39°33' E 002°38'0 0.0
2016-Aug-29 21:33N 39°33' E 002°38'0 0.0
2016-Aug-29 20:33N 39°33' E 002°38'0 0.0
2016-Aug-29 19:33N 39°33' E 002°38'0 0.0
2016-Aug-29 18:33N 39°33' E 002°38'0 0.0
2016-Aug-29 17:33N 39°33' E 002°38'0 0.0
2016-Aug-29 16:33N 39°33' E 002°38'0 0.0
2016-Aug-29 15:33N 39°33' E 002°38'0 0.0
2016-Aug-29 14:33N 39°33' E 002°38'0 0.0
2016-Aug-29 13:33N 39°33' E 002°38'0 0.0
2016-Aug-29 12:33N 39°33' E 002°38'0 0.0
2016-Aug-29 11:33N 39°33' E 002°38'0 0.0
2016-Aug-29 10:33N 39°33' E 002°38'0 0.0
2016-Aug-29 09:33N 39°33' E 002°38'0 0.0
2016-Aug-29 08:33N 39°33' E 002°38'0 0.0
2016-Aug-29 07:30N 39°33' E 002°38'0 0.0
2016-Aug-29 06:27N 39°33' E 002°38'0 0.0
2016-Aug-29 05:33N 39°33' E 002°38'0 0.0
2016-Aug-29 04:33N 39°33' E 002°38'0 0.0
2016-Aug-29 03:33N 39°33' E 002°38'0 0.0
2016-Aug-29 02:33N 39°33' E 002°38'0 0.0
2016-Aug-29 01:33N 39°33' E 002°38'0 0.0
2016-Aug-29 00:33N 39°33' E 002°38'0 0.0
2016-Aug-28 23:33N 39°33' E 002°38'0 0.0
2016-Aug-28 22:33N 39°33' E 002°38'0 0.0
2016-Aug-28 21:33N 39°33' E 002°38'0 0.0
2016-Aug-28 20:33N 39°33' E 002°38'0 0.0
2016-Aug-28 19:33N 39°33' E 002°38'0 0.0
2016-Aug-28 18:33N 39°33' E 002°38'0 0.1
2016-Aug-28 17:33N 39°33' E 002°38'9 9.0
2016-Aug-28 16:33N 39°25' E 002°33'1615.8
2016-Aug-28 15:33N 39°12' E 002°21'1615.9
2016-Aug-28 14:33N 38°60' E 002°08'1816.2
2016-Aug-28 13:27N 38°46' E 001°54'1516.2
2016-Aug-28 12:33N 38°35' E 001°42'3115.7
2016-Aug-28 10:33N 38°16' E 001°10'3115.7
2016-Aug-28 08:33N 37°57' E 000°37'1615.5
2016-Aug-28 07:33N 37°48' E 000°21'1515.4
2016-Aug-28 06:33N 37°39' E 000°06'1615.4
2016-Aug-28 05:33N 37°30' W 000°10'1716.0
2016-Aug-28 04:31N 37°21' W 000°27'1616.4
2016-Aug-28 03:33N 37°11' W 000°43'1915.7
2016-Aug-28 02:22N 37°01' W 001°02'1315.7
2016-Aug-28 01:32N 36°53' W 001°15'1515.8
2016-Aug-28 00:33N 36°43' W 001°31'1815.7
2016-Aug-27 23:25N 36°34' W 001°49'3214.7
2016-Aug-27 21:12N 36°23' W 002°27'1015.1
2016-Aug-27 20:33N 36°24' W 002°39'124 6.1
2016-Aug-27 00:12N 36°04' W 005°10'914.8
2016-Aug-26 23:34N 35°60' W 005°21'2014.7
2016-Aug-26 22:11N 35°54' W 005°45'9514.0
2016-Aug-26 15:23N 36°11' W 007°41'11113.4
2016-Aug-26 07:06N 37°08' W 009°40'3814.8
2016-Aug-26 04:33N 37°44' W 009°50'1514.6
2016-Aug-26 03:33N 37°59' W 009°54'1515.1
2016-Aug-26 02:33N 38°14' W 009°57'1515.3
2016-Aug-26 01:33N 38°29' W 010°02'1514.8
2016-Aug-26 00:33N 38°43' W 010°06'1414.4
2016-Aug-25 23:33N 38°57' W 010°04'1615.4
2016-Aug-25 22:33N 39°13' W 010°01'1715.5
2016-Aug-25 21:27N 39°29' W 009°57'1415.0
2016-Aug-25 20:33N 39°42' W 009°51'3215.1
2016-Aug-25 18:24N 40°09' W 009°28'1815.1
2016-Aug-25 17:11N 40°25' W 009°16'2814.9
2016-Aug-25 15:19N 40°49' W 008°58'30 2.3
2016-Aug-25 02:23N 41°18' W 009°09'10 9.4
2016-Aug-25 01:16N 41°28' W 009°13'11 9.3
2016-Aug-25 00:05N 41°39' W 009°12'6 9.4
2016-Aug-24 23:29N 41°45' W 009°12'9 9.5
2016-Aug-24 22:33N 41°53' W 009°11'9 9.1
2016-Aug-24 21:33N 42°02' W 009°08'10 9.4
2016-Aug-24 20:30N 42°08' W 008°58'9 0.8
2016-Aug-24 08:21N 42°18' W 008°57'1215.1
2016-Aug-24 07:33N 42°24' W 009°10'20113.3
2016-Aug-23 16:29N 45°42' W 008°18'1615.5
2016-Aug-23 15:27N 45°56' W 008°09'2015.6
2016-Aug-23 14:08N 46°14' W 007°54'7015.3
2016-Aug-23 09:33N 47°15' W 007°05'1211.9
2016-Aug-23 08:33N 47°25' W 006°56'3115.5
2016-Aug-23 06:33N 47°53' W 006°35'1515.2
2016-Aug-23 05:33N 48°07' W 006°27'3415.4
2016-Aug-23 03:22N 48°37' W 006°04'1316.5
2016-Aug-23 02:33N 48°49' W 005°55'1717.0
2016-Aug-23 01:33N 49°00' W 005°35'1817.8
2016-Aug-23 00:33N 49°06' W 005°10'1817.6
2016-Aug-22 23:34N 49°09' W 004°43'1716.8
2016-Aug-22 22:34N 49°11' W 004°18'1515.4
2016-Aug-22 21:34N 49°14' W 003°54'1414.1
2016-Aug-22 20:34N 49°17' W 003°33'1313.4
2016-Aug-22 19:34N 49°19' W 003°13'1414.2
2016-Aug-22 18:33N 49°21' W 002°51'1413.8
2016-Aug-22 17:33N 49°25' W 002°31'3 2.7
2016-Aug-22 16:25N 49°28' W 002°31'0 0.0
2016-Aug-22 15:16N 49°28' W 002°31'0 0.0
2016-Aug-22 14:16N 49°28' W 002°31'0 0.0
2016-Aug-22 13:13N 49°28' W 002°31'0 0.0
2016-Aug-22 09:19N 49°28' W 002°31'7 8.3
2016-Aug-22 08:27N 49°22' W 002°23'1111.1
2016-Aug-22 07:30N 49°29' W 002°11'1413.4
2016-Aug-22 06:27N 49°43' W 002°05'1617.5
2016-Aug-22 05:33N 49°52' W 001°45'1919.4
2016-Aug-22 04:33N 50°00' W 001°18'1818.4
2016-Aug-22 03:33N 50°10' W 000°54'2017.0
2016-Aug-22 02:22N 50°21' W 000°27'1316.0
2016-Aug-22 01:34N 50°27' W 000°10'1514.6
2016-Aug-22 00:31N 50°32' E 000°13'4214.1
2016-Aug-21 21:33N 50°52' E 001°11'1817.7
2016-Aug-21 20:33N 51°04' E 001°32'1717.2
2016-Aug-21 19:34N 51°17' E 001°50'1313.1
2016-Aug-21 18:34N 51°23' E 002°08'1414.3
2016-Aug-21 17:33N 51°23' E 002°31'1313.3
2016-Aug-21 16:33N 51°23' E 002°52'1212.2
2016-Aug-21 15:34N 51°22' E 003°12'1 1.0
2016-Aug-21 14:33N 51°21' E 003°12'0 0.0
2016-Aug-21 13:33N 51°21' E 003°12'0 0.0
2016-Aug-21 12:33N 51°21' E 003°12'0 0.0
2016-Aug-21 11:33N 51°21' E 003°12'0 0.0
2016-Aug-21 10:33N 51°21' E 003°12'0 0.0
2016-Aug-21 09:33N 51°21' E 003°12'0 0.1
2016-Aug-21 08:33N 51°21' E 003°12'8 8.2
2016-Aug-21 07:33N 51°25' E 003°00'1111.2
2016-Aug-21 06:33N 51°30' E 002°44'  
Track history (hours):
 
Tides and Currents Weather Stations Pressure Air Temp Water Temp Dewpoint Dewpoint Depression Visibility Wind Speed Wind Dir Waves Ship Positions

Voyager

Last reported at 2016-Aug-31 06:19 UTC. Time now 2016-Sep-01 05:39 UTC.
Position N 41°30' E 004°01'.

Length 151 m; draft 6 m.

Type: Ship. MMSI: 309695000.

Date/timePositionNaut miles runAvg speedWind from/ knotsBaromVisibWave heightAir tempDewpointWater temp
2016-Aug-31 06:19N 41°30' E 004°01'3910.0
2016-Aug-31 02:24N 41°24' E 003°09'49 2.6
2016-Aug-30 07:33N 40°57' E 002°14'1313.0
2016-Aug-30 06:33N 40°44' E 002°14'1313.0
2016-Aug-30 05:33N 40°31' E 002°13'1312.8
2016-Aug-30 04:33N 40°18' E 002°13'1313.3
2016-Aug-30 03:33N 40°05' E 002°12'1413.7
2016-Aug-30 02:33N 39°51' E 002°11'1313.4
2016-Aug-30 01:33N 39°38' E 002°11'1312.7
2016-Aug-30 00:33N 39°26' E 002°18'1313.0
2016-Aug-29 23:33N 39°25' E 002°35'8 7.6
2016-Aug-29 22:30N 39°33' E 002°38'0 0.0
2016-Aug-29 21:33N 39°33' E 002°38'0 0.0
2016-Aug-29 20:33N 39°33' E 002°38'0 0.0
2016-Aug-29 19:33N 39°33' E 002°38'0 0.0
2016-Aug-29 18:33N 39°33' E 002°38'0 0.0
2016-Aug-29 17:33N 39°33' E 002°38'0 0.0
2016-Aug-29 16:33N 39°33' E 002°38'0 0.0
2016-Aug-29 15:33N 39°33' E 002°38'0 0.0
2016-Aug-29 14:33N 39°33' E 002°38'0 0.0
2016-Aug-29 13:33N 39°33' E 002°38'0 0.0
2016-Aug-29 12:33N 39°33' E 002°38'0 0.0
2016-Aug-29 11:33N 39°33' E 002°38'0 0.0
2016-Aug-29 10:33N 39°33' E 002°38'0 0.0
2016-Aug-29 09:33N 39°33' E 002°38'0 0.0
2016-Aug-29 08:33N 39°33' E 002°38'0 0.0
2016-Aug-29 07:30N 39°33' E 002°38'0 0.0
2016-Aug-29 06:27N 39°33' E 002°38'0 0.0
2016-Aug-29 05:33N 39°33' E 002°38'0 0.0
2016-Aug-29 04:33N 39°33' E 002°38'0 0.0
2016-Aug-29 03:33N 39°33' E 002°38'0 0.0
2016-Aug-29 02:33N 39°33' E 002°38'0 0.0
2016-Aug-29 01:33N 39°33' E 002°38'0 0.0
2016-Aug-29 00:33N 39°33' E 002°38'0 0.0
2016-Aug-28 23:33N 39°33' E 002°38'0 0.0
2016-Aug-28 22:33N 39°33' E 002°38'0 0.0
2016-Aug-28 21:33N 39°33' E 002°38'0 0.0
2016-Aug-28 20:33N 39°33' E 002°38'0 0.0
2016-Aug-28 19:33N 39°33' E 002°38'0 0.0
2016-Aug-28 18:33N 39°33' E 002°38'0 0.1
2016-Aug-28 17:33N 39°33' E 002°38'9 9.0
2016-Aug-28 16:33N 39°25' E 002°33'1615.8
2016-Aug-28 15:33N 39°12' E 002°21'1615.9
2016-Aug-28 14:33N 38°60' E 002°08'1816.2
2016-Aug-28 13:27N 38°46' E 001°54'1516.2
2016-Aug-28 12:33N 38°35' E 001°42'3115.7
2016-Aug-28 10:33N 38°16' E 001°10'3115.7
2016-Aug-28 08:33N 37°57' E 000°37'1615.5
2016-Aug-28 07:33N 37°48' E 000°21'1515.4
2016-Aug-28 06:33N 37°39' E 000°06'1615.4
2016-Aug-28 05:33N 37°30' W 000°10'1716.0
2016-Aug-28 04:31N 37°21' W 000°27'1616.4
2016-Aug-28 03:33N 37°11' W 000°43'1915.7
2016-Aug-28 02:22N 37°01' W 001°02'1315.7
2016-Aug-28 01:32N 36°53' W 001°15'1515.8
2016-Aug-28 00:33N 36°43' W 001°31'1815.7
2016-Aug-27 23:25N 36°34' W 001°49'3214.7
2016-Aug-27 21:12N 36°23' W 002°27'1015.1
2016-Aug-27 20:33N 36°24' W 002°39'124 6.1
2016-Aug-27 00:12N 36°04' W 005°10'914.8
2016-Aug-26 23:34N 35°60' W 005°21'2014.7
2016-Aug-26 22:11N 35°54' W 005°45'9514.0
2016-Aug-26 15:23N 36°11' W 007°41'11113.4
2016-Aug-26 07:06N 37°08' W 009°40'3814.8
2016-Aug-26 04:33N 37°44' W 009°50'1514.6
2016-Aug-26 03:33N 37°59' W 009°54'1515.1
2016-Aug-26 02:33N 38°14' W 009°57'1515.3
2016-Aug-26 01:33N 38°29' W 010°02'1514.8
2016-Aug-26 00:33N 38°43' W 010°06'1414.4
2016-Aug-25 23:33N 38°57' W 010°04'1615.4
2016-Aug-25 22:33N 39°13' W 010°01'1715.5
2016-Aug-25 21:27N 39°29' W 009°57'1415.0
2016-Aug-25 20:33N 39°42' W 009°51'3215.1
2016-Aug-25 18:24N 40°09' W 009°28'1815.1
2016-Aug-25 17:11N 40°25' W 009°16'2814.9
2016-Aug-25 15:19N 40°49' W 008°58'30 2.3
2016-Aug-25 02:23N 41°18' W 009°09'10 9.4
2016-Aug-25 01:16N 41°28' W 009°13'11 9.3
2016-Aug-25 00:05N 41°39' W 009°12'6 9.4
2016-Aug-24 23:29N 41°45' W 009°12'9 9.5
2016-Aug-24 22:33N 41°53' W 009°11'9 9.1
2016-Aug-24 21:33N 42°02' W 009°08'10 9.4
2016-Aug-24 20:30N 42°08' W 008°58'9 0.8
2016-Aug-24 08:21N 42°18' W 008°57'1215.1
2016-Aug-24 07:33N 42°24' W 009°10'20113.3
2016-Aug-23 16:29N 45°42' W 008°18'1615.5
2016-Aug-23 15:27N 45°56' W 008°09'2015.6
2016-Aug-23 14:08N 46°14' W 007°54'7015.3
2016-Aug-23 09:33N 47°15' W 007°05'1211.9
2016-Aug-23 08:33N 47°25' W 006°56'3115.5
2016-Aug-23 06:33N 47°53' W 006°35'1515.2
2016-Aug-23 05:33N 48°07' W 006°27'3415.4
2016-Aug-23 03:22N 48°37' W 006°04'1316.5
2016-Aug-23 02:33N 48°49' W 005°55'1717.0
2016-Aug-23 01:33N 49°00' W 005°35'1817.8
2016-Aug-23 00:33N 49°06' W 005°10'1817.6
2016-Aug-22 23:34N 49°09' W 004°43'1716.8
2016-Aug-22 22:34N 49°11' W 004°18'1515.4
2016-Aug-22 21:34N 49°14' W 003°54'1414.1
2016-Aug-22 20:34N 49°17' W 003°33'1313.4
2016-Aug-22 19:34N 49°19' W 003°13'1414.2
2016-Aug-22 18:33N 49°21' W 002°51'1413.8
2016-Aug-22 17:33N 49°25' W 002°31'3 2.7
2016-Aug-22 16:25N 49°28' W 002°31'0 0.0
2016-Aug-22 15:16N 49°28' W 002°31'0 0.0
2016-Aug-22 14:16N 49°28' W 002°31'0 0.0
2016-Aug-22 13:13N 49°28' W 002°31'0 0.0
2016-Aug-22 09:19N 49°28' W 002°31'7 8.3
2016-Aug-22 08:27N 49°22' W 002°23'1111.1
2016-Aug-22 07:30N 49°29' W 002°11'1413.4
2016-Aug-22 06:27N 49°43' W 002°05'1617.5
2016-Aug-22 05:33N 49°52' W 001°45'1919.4
2016-Aug-22 04:33N 50°00' W 001°18'1818.4
2016-Aug-22 03:33N 50°10' W 000°54'2017.0
2016-Aug-22 02:22N 50°21' W 000°27'1316.0
2016-Aug-22 01:34N 50°27' W 000°10'1514.6
2016-Aug-22 00:31N 50°32' E 000°13'4214.1
2016-Aug-21 21:33N 50°52' E 001°11'1817.7
2016-Aug-21 20:33N 51°04' E 001°32'1717.2
2016-Aug-21 19:34N 51°17' E 001°50'1313.1
2016-Aug-21 18:34N 51°23' E 002°08'1414.3
2016-Aug-21 17:33N 51°23' E 002°31'1313.3
2016-Aug-21 16:33N 51°23' E 002°52'1212.2
2016-Aug-21 15:34N 51°22' E 003°12'1 1.0
2016-Aug-21 14:33N 51°21' E 003°12'0 0.0
2016-Aug-21 13:33N 51°21' E 003°12'0 0.0
2016-Aug-21 12:33N 51°21' E 003°12'0 0.0
2016-Aug-21 11:33N 51°21' E 003°12'0 0.0
2016-Aug-21 10:33N 51°21' E 003°12'0 0.0
2016-Aug-21 09:33N 51°21' E 003°12'0 0.1
2016-Aug-21 08:33N 51°21' E 003°12'8 8.2
2016-Aug-21 07:33N 51°25' E 003°00'1111.2
2016-Aug-21 06:33N 51°30' E 002°44'  

Dump ship's entire track history